Time;durP1;ratioP1;P1;durP2;ratioP2;P2;SDS_P1;SDS_P2;PMS_P1;PMS_P2;Temp;Humidity;BMP_temperature;BMP_pressure;BME280_temperature;BME280_humidity;BME280_pressure;Samples;Min_cycle;Max_cycle;Signal;HPM_P1;HPM_P2
2023/05/25 00:02:08;;;;;;;8.83;6.10;;;9.90;99.90;;;-141.84;73.54;19893.09;5031009;28;20233;-71
2023/05/25 00:04:37;;;;;;;11.40;5.07;;;9.90;99.90;;;-141.84;73.51;19878.88;5030713;28;20894;-71
2023/05/25 00:07:05;;;;;;;9.30;5.40;;;9.80;99.90;;;-141.84;74.13;19878.88;5030650;28;20210;-71
2023/05/25 00:09:35;;;;;;;8.97;5.47;;;9.80;99.90;;;-141.84;73.95;19870.75;5030876;28;20206;-71
2023/05/25 00:12:03;;;;;;;8.07;5.27;;;9.80;99.90;;;-141.84;74.46;19866.69;5030895;28;20237;-70
2023/05/25 00:14:31;;;;;;;7.57;5.33;;;9.80;99.90;;;-141.84;74.66;19852.44;5030731;28;20241;-58
2023/05/25 00:17:02;;;;;;;8.60;5.13;;;9.70;99.90;;;-141.84;74.58;19832.13;5030407;28;20237;-57
2023/05/25 00:19:32;;;;;;;9.13;5.37;;;9.70;99.90;;;-141.84;74.74;19858.56;5030336;28;20269;-57
2023/05/25 00:22:01;;;;;;;9.10;5.17;;;9.70;99.90;;;-141.84;74.89;19866.69;5030976;28;20209;-57
2023/05/25 00:24:30;;;;;;;10.33;5.50;;;9.60;99.90;;;-141.84;74.77;19870.75;5030468;28;20293;-57
2023/05/25 00:26:59;;;;;;;7.70;5.43;;;9.70;99.90;;;-141.84;75.12;19848.38;5030597;28;20577;-59
2023/05/25 00:29:27;;;;;;;8.43;5.40;;;9.60;99.90;;;-141.84;75.17;19854.50;5030204;28;20240;-57
2023/05/25 00:31:56;;;;;;;10.07;5.97;;;9.60;99.90;;;-141.84;75.40;19856.53;5030570;28;20214;-58
2023/05/25 00:34:24;;;;;;;9.03;5.67;;;9.60;99.90;;;-141.84;75.30;19834.16;5030534;28;20292;-56
2023/05/25 00:36:54;;;;;;;9.03;6.03;;;9.50;99.90;;;-141.84;75.55;19797.59;5031108;28;20289;-58
2023/05/25 00:39:22;;;;;;;7.70;5.20;;;9.50;99.90;;;-141.84;75.56;19856.53;5030218;28;20678;-59
2023/05/25 00:41:50;;;;;;;8.60;5.20;;;9.50;99.90;;;-141.84;75.81;19809.78;5030331;28;20681;-58
2023/05/25 00:44:20;;;;;;;9.47;5.50;;;9.50;99.90;;;-141.84;75.70;19832.13;5029948;28;20268;-57
2023/05/25 00:46:51;;;;;;;10.67;5.47;;;9.50;99.90;;;-141.84;76.28;19826.03;5030314;28;20186;-58
2023/05/25 00:49:22;;;;;;;8.83;5.50;;;9.40;99.90;;;-141.84;77.04;19811.81;5030356;28;20190;-59
2023/05/25 00:51:53;;;;;;;8.53;5.60;;;9.30;99.90;;;-141.84;76.36;19834.16;5010875;28;20273;-58
2023/05/25 00:54:21;;;;;;;10.20;5.53;;;9.30;99.90;;;-141.84;76.40;19801.66;5021430;28;20204;-57
2023/05/25 00:56:56;;;;;;;9.33;5.60;;;9.30;99.90;;;-141.84;76.08;19811.81;5030429;28;20582;-56
2023/05/25 00:59:34;;;;;;;9.60;6.07;;;9.40;99.90;;;-141.84;76.92;19801.66;5030033;28;20217;-56
2023/05/25 01:02:05;;;;;;;8.23;5.53;;;9.30;99.90;;;-141.84;76.81;19809.78;5030137;28;20194;-57
2023/05/25 01:04:36;;;;;;;10.60;6.10;;;9.30;99.90;;;-141.84;76.67;19781.31;5030480;28;20206;-56
2023/05/25 01:07:11;;;;;;;7.97;5.70;;;9.30;99.90;;;-141.84;76.15;19805.72;5030237;28;20187;-56
2023/05/25 01:09:43;;;;;;;10.63;5.50;;;9.30;99.90;;;-141.84;76.80;19775.22;5029764;28;20239;-58
2023/05/25 01:12:14;;;;;;;10.20;6.00;;;9.10;99.90;;;-141.84;77.02;19781.31;5030293;28;20222;-59
2023/05/25 01:14:45;;;;;;;7.63;5.60;;;9.10;99.90;;;-141.84;77.03;19779.28;5029653;28;20729;-57
2023/05/25 01:17:15;;;;;;;9.57;6.17;;;9.10;99.90;;;-141.84;77.48;19761.00;5030338;28;20270;-57
2023/05/25 01:19:44;;;;;;;10.50;5.43;;;9.00;99.90;;;-141.84;77.62;19754.91;5030097;28;20198;-58
2023/05/25 01:22:37;;;;;;;10.73;6.23;;;9.00;99.90;;;-141.84;77.25;19801.66;5030107;28;20747;-58
2023/05/25 01:25:13;;;;;;;8.40;5.70;;;9.00;99.90;;;-141.84;77.32;19761.00;5010149;28;20635;-56
2023/05/25 01:27:48;;;;;;;10.30;5.47;;;9.00;99.90;;;-141.84;77.65;19765.06;5009999;28;20529;-58
2023/05/25 01:30:22;;;;;;;8.17;5.70;;;9.00;99.90;;;-141.84;77.25;19775.22;5021632;28;20193;-57
2023/05/25 01:32:53;;;;;;;9.47;6.57;;;8.90;99.90;;;-141.84;76.75;19811.81;5033719;28;20680;-57
2023/05/25 01:35:23;;;;;;;8.40;6.37;;;9.00;99.90;;;-141.84;76.68;19783.34;5033603;28;20331;-55
2023/05/25 01:37:52;;;;;;;9.50;5.70;;;9.00;99.90;;;-141.84;76.50;19797.59;5033440;28;20737;-59
2023/05/25 01:40:21;;;;;;;10.07;6.37;;;9.00;99.90;;;-141.84;76.54;19746.78;5033921;28;20282;-58
2023/05/25 01:42:49;;;;;;;10.50;6.40;;;8.90;99.90;;;-141.84;76.93;19769.13;5033335;28;20252;-59
2023/05/25 01:45:17;;;;;;;7.80;6.10;;;8.90;99.90;;;-141.84;77.11;19752.88;5033060;28;20681;-55
2023/05/25 01:47:57;;;;;;;9.93;5.83;;;8.90;99.90;;;-141.84;77.31;19761.00;5033309;28;20751;-58
2023/05/25 01:50:51;;;;;;;8.47;5.73;;;8.90;99.90;;;-141.84;77.72;19742.72;5033458;28;20248;-56
2023/05/25 01:53:26;;;;;;;9.60;6.23;;;8.90;99.90;;;-141.84;77.63;19730.50;5033633;28;20198;-57
2023/05/25 01:56:00;;;;;;;9.10;5.97;;;8.90;99.90;;;-141.84;77.59;19785.38;5033569;28;20280;-57
2023/05/25 01:58:35;;;;;;;11.60;6.30;;;8.90;99.90;;;-141.84;77.30;19767.09;5033433;28;20293;-58
2023/05/25 02:01:04;;;;;;;8.00;6.47;;;8.90;99.90;;;-141.84;77.29;19738.66;5033128;28;20228;-58
2023/05/25 02:03:32;;;;;;;10.80;6.33;;;8.90;99.90;;;-141.84;77.57;19736.59;5033599;28;20595;-58
2023/05/25 02:06:00;;;;;;;9.87;6.17;;;8.80;99.90;;;-141.84;78.00;19767.09;5033026;28;20202;-57
2023/05/25 02:08:30;;;;;;;11.37;6.57;;;8.60;99.90;;;-141.84;78.16;19777.25;5032889;28;20694;-56
2023/05/25 02:10:58;;;;;;;9.77;6.90;;;8.80;99.90;;;-141.84;78.58;19746.78;5033106;28;20271;-56
2023/05/25 02:13:26;;;;;;;12.23;7.43;;;8.80;99.90;;;-141.84;78.94;19736.59;5033279;28;20288;-56
2023/05/25 02:15:55;;;;;;;10.03;6.83;;;8.80;99.90;;;-141.84;78.58;19718.31;5032618;28;20206;-58
2023/05/25 02:18:23;;;;;;;10.80;6.87;;;8.70;99.90;;;-141.84;79.64;19714.25;5032616;28;20666;-57
2023/05/25 02:20:52;;;;;;;11.57;7.23;;;8.70;99.90;;;-141.84;79.57;19704.09;5032900;28;20641;-57
2023/05/25 02:23:20;;;;;;;10.63;6.93;;;8.60;99.90;;;-141.84;79.26;19756.94;5033044;28;20198;-56
2023/05/25 02:25:50;;;;;;;9.47;6.57;;;8.70;99.90;;;-141.84;78.82;19738.66;5033079;28;20599;-57
2023/05/25 02:28:18;;;;;;;10.07;6.37;;;8.70;99.90;;;-141.84;78.18;19740.69;5033342;28;20198;-57
2023/05/25 02:30:47;;;;;;;8.77;6.47;;;8.70;99.90;;;-141.84;78.02;19726.44;5032908;28;20525;-58
2023/05/25 02:33:15;;;;;;;10.27;6.70;;;8.70;99.90;;;-141.84;78.31;19724.41;5033186;28;20234;-57
2023/05/25 02:35:43;;;;;;;11.23;7.00;;;8.70;99.90;;;-141.84;78.33;19728.47;5032881;28;20298;-58
2023/05/25 02:38:12;;;;;;;11.50;7.27;;;8.60;99.90;;;-141.84;78.99;19704.09;5032837;28;20198;-58
2023/05/25 02:40:41;;;;;;;10.37;6.57;;;8.60;99.90;;;-141.84;78.82;19712.22;5032481;28;20230;-58
2023/05/25 02:43:11;;;;;;;10.77;7.47;;;8.60;99.90;;;-141.84;78.94;19712.22;5032677;28;20229;-57
2023/05/25 02:45:39;;;;;;;9.37;6.77;;;8.60;99.90;;;-141.84;78.82;19732.53;5032293;28;20309;-58
2023/05/25 02:48:07;;;;;;;11.90;7.30;;;8.60;99.90;;;-141.84;79.02;19710.19;5032956;28;20244;-58
2023/05/25 02:50:35;;;;;;;10.77;7.43;;;8.60;99.90;;;-141.84;78.81;19700.03;5032505;28;20630;-59
2023/05/25 02:53:04;;;;;;;13.40;7.43;;;8.60;99.90;;;-141.84;78.91;19700.03;5032818;28;20237;-58
2023/05/25 02:55:32;;;;;;;12.30;7.90;;;8.50;99.90;;;-141.84;78.37;19722.38;5032298;28;20237;-57
2023/05/25 02:58:00;;;;;;;11.27;7.50;;;8.60;99.90;;;-141.84;78.41;19720.34;5032475;28;20677;-57
2023/05/25 03:00:30;;;;;;;10.27;7.37;;;8.50;99.90;;;-141.84;79.15;19708.16;5032007;28;20293;-56
2023/05/25 03:02:59;;;;;;;12.17;7.93;;;8.50;99.90;;;-141.84;79.57;19691.91;5032168;28;20647;-58
2023/05/25 03:05:27;;;;;;;11.17;8.03;;;8.50;99.90;;;-141.84;80.02;19683.78;5032143;28;20240;-58
2023/05/25 03:07:55;;;;;;;11.03;7.87;;;8.40;99.90;;;-141.84;80.21;19667.50;5032873;28;20575;-59
2023/05/25 03:10:23;;;;;;;13.83;7.73;;;8.40;99.90;;;-141.84;80.01;19675.63;5031672;28;20670;-57
2023/05/25 03:12:51;;;;;;;13.47;7.90;;;8.40;99.90;;;-141.84;79.84;19687.84;5032498;28;20201;-59
2023/05/25 03:15:19;;;;;;;11.83;7.37;;;8.30;99.90;;;-141.84;79.84;19700.03;5031635;28;20198;-57
2023/05/25 03:17:49;;;;;;;9.93;7.13;;;8.30;99.90;;;-141.84;78.95;19681.75;5032282;28;20252;-58
2023/05/25 03:20:19;;;;;;;8.80;6.77;;;8.40;99.90;;;-141.84;78.44;19683.78;5032087;28;20480;-57
2023/05/25 03:22:47;;;;;;;11.33;7.47;;;8.40;99.90;;;-141.84;78.55;19708.16;5031976;28;20300;-57
2023/05/25 03:25:16;;;;;;;9.90;7.37;;;8.40;99.90;;;-141.84;79.12;19667.50;5031725;28;20710;-57
2023/05/25 03:27:44;;;;;;;13.97;8.67;;;8.40;99.90;;;-141.84;79.12;19679.72;5032017;28;20233;-57
2023/05/25 03:30:13;;;;;;;12.83;8.43;;;8.40;99.90;;;-141.84;79.60;19651.25;5031347;28;20206;-57
2023/05/25 03:32:42;;;;;;;13.33;8.87;;;8.40;99.90;;;-141.84;79.91;19698.00;5031204;28;20253;-57
2023/05/25 03:35:11;;;;;;;12.23;8.63;;;8.40;99.90;;;-141.84;79.62;19704.09;5031824;28;20198;-58
2023/05/25 03:37:39;;;;;;;11.70;8.10;;;8.50;99.90;;;-141.84;79.52;19667.50;5031392;28;20289;-58
2023/05/25 03:40:10;;;;;;;12.20;8.83;;;8.50;99.90;;;-141.84;79.95;19643.13;5031620;28;20556;-58
2023/05/25 03:42:38;;;;;;;10.67;8.40;;;8.50;99.90;;;-141.84;80.00;19671.56;5031250;28;20240;-57
2023/05/25 03:45:08;;;;;;;12.87;8.87;;;8.50;99.90;;;-141.84;79.42;19683.78;5031381;28;20226;-57
2023/05/25 03:47:37;;;;;;;14.13;9.17;;;8.60;99.90;;;-141.84;79.24;19730.50;5031192;28;20753;-58
2023/05/25 03:50:07;;;;;;;12.87;9.27;;;8.60;99.90;;;-141.84;79.12;19722.38;5031635;28;20202;-57
2023/05/25 03:52:37;;;;;;;11.97;8.73;;;8.70;99.90;;;-141.84;79.60;19728.47;5030515;28;20210;-56
2023/05/25 03:55:06;;;;;;;12.80;9.57;;;8.70;99.90;;;-141.84;79.32;19744.75;5031352;28;20663;-58
2023/05/25 03:57:34;;;;;;;12.00;9.23;;;8.70;99.90;;;-141.84;79.05;19718.31;5031467;28;20202;-58
2023/05/25 04:00:03;;;;;;;10.73;9.10;;;8.80;99.90;;;-141.84;79.04;19702.06;5031157;28;20233;-58
2023/05/25 04:02:33;;;;;;;13.03;9.30;;;8.80;99.90;;;-141.84;79.01;19722.38;5031644;28;20206;-58
2023/05/25 04:05:01;;;;;;;12.30;8.50;;;8.90;99.90;;;-141.84;79.15;19726.44;5031183;28;20698;-59
2023/05/25 04:07:30;;;;;;;12.33;8.60;;;8.90;99.90;;;-141.84;78.43;19767.09;5031182;28;20206;-59
2023/05/25 04:09:59;;;;;;;13.23;8.33;;;9.00;99.90;;;-141.84;78.25;19748.81;5031014;28;20697;-57
2023/05/25 04:12:28;;;;;;;12.13;8.43;;;9.00;99.90;;;-141.84;77.76;19736.59;5031375;28;20202;-57
2023/05/25 04:14:56;;;;;;;12.83;8.40;;;9.10;99.90;;;-141.84;77.35;19761.00;5031215;28;20368;-58
2023/05/25 04:17:24;;;;;;;10.87;7.87;;;9.10;99.90;;;-141.84;75.64;19761.00;5031375;28;20275;-57
2023/05/25 04:19:53;;;;;;;11.50;8.73;;;9.20;99.90;;;-141.84;76.30;19761.00;5031107;28;20205;-58
2023/05/25 04:22:21;;;;;;;10.90;8.40;;;9.20;99.90;;;-141.84;75.92;19828.06;5030683;28;20300;-58
2023/05/25 04:24:49;;;;;;;14.37;8.93;;;9.30;99.90;;;-141.84;75.79;19809.78;5030995;28;20256;-55
2023/05/25 04:27:19;;;;;;;13.27;8.60;;;9.30;99.90;;;-141.84;75.29;19828.06;5030588;28;20678;-58
2023/05/25 04:29:49;;;;;;;13.63;8.50;;;9.50;99.90;;;-141.84;74.27;19840.25;5030660;28;20654;-57
2023/05/25 04:32:17;;;;;;;14.33;8.70;;;9.50;99.90;;;-141.84;74.39;19838.22;5031806;28;20690;-57
2023/05/25 04:34:47;;;;;;;11.90;8.47;;;9.60;99.90;;;-141.84;73.59;19880.91;5031589;28;20225;-56
2023/05/25 04:37:16;;;;;;;9.03;8.13;;;9.70;99.90;;;-141.84;73.87;19868.72;5030753;28;20389;-58
2023/05/25 04:39:44;;;;;;;12.30;8.63;;;9.80;99.90;;;-141.84;73.72;19889.03;5030817;28;20284;-58
2023/05/25 04:42:12;;;;;;;11.53;8.27;;;9.90;99.90;;;-141.84;72.15;19893.09;5030717;28;20244;-58
2023/05/25 04:44:42;;;;;;;13.23;8.10;;;9.90;99.90;;;-141.84;72.88;19929.69;5012920;28;20282;-57
2023/05/25 04:47:11;;;;;;;11.73;8.33;;;10.10;99.90;;;-141.84;72.83;19903.25;5015922;28;20234;-57
2023/05/25 04:49:39;;;;;;;12.17;8.47;;;10.10;99.90;;;-141.84;73.45;19929.69;5030712;28;20297;-58
2023/05/25 04:52:07;;;;;;;12.23;7.90;;;10.40;99.90;;;-141.84;66.81;20132.94;5030808;28;20204;-58
2023/05/25 04:54:36;;;;;;;10.93;7.50;;;10.90;99.90;;;-141.84;61.84;20358.56;5030688;28;20202;-59
2023/05/25 04:57:05;;;;;;;9.77;7.27;;;11.60;99.90;;;-141.84;58.75;20482.53;5030783;28;20208;-57
2023/05/25 04:59:33;;;;;;;11.47;7.73;;;12.30;99.90;;;-141.84;55.12;20649.22;5030444;28;20210;-58
2023/05/25 05:02:02;;;;;;;9.20;6.95;;;13.10;99.90;;;-141.84;54.67;20724.44;5030122;28;20654;-59
2023/05/25 05:04:31;;;;;;;9.70;7.30;;;13.80;99.90;;;-141.84;51.12;20907.41;5033706;28;20198;-59
2023/05/25 05:06:59;;;;;;;8.77;7.00;;;14.30;99.90;;;-141.84;51.59;20952.13;5034829;28;20378;-59
2023/05/25 05:09:27;;;;;;;17.77;13.70;;;14.90;99.90;;;-141.84;49.26;21090.38;5034601;28;20212;-59
2023/05/25 05:11:56;;;;;;;8.95;7.05;;;15.00;99.90;;;-141.84;49.77;21084.28;5034805;28;20248;-57
2023/05/25 05:14:24;;;;;;;10.55;7.88;;;15.40;99.90;;;-141.84;47.86;21161.53;5034359;28;20205;-58
2023/05/25 05:16:52;;;;;;;11.63;7.82;;;15.60;99.90;;;-141.84;48.97;21098.50;5034562;28;20198;-59
2023/05/25 05:19:22;;;;;;;10.75;8.27;;;15.60;99.90;;;-141.84;48.99;21057.84;5034401;28;20295;-59
2023/05/25 05:21:50;;;;;;;12.43;7.80;;;15.40;99.90;;;-141.84;49.55;21025.31;5034368;28;20289;-59
2023/05/25 05:24:18;;;;;;;10.05;8.23;;;15.30;99.90;;;-141.84;50.47;21009.03;5034250;28;20281;-57
2023/05/25 05:26:46;;;;;;;10.10;8.13;;;15.20;99.90;;;-141.84;49.81;21017.19;5034452;28;20309;-60
2023/05/25 05:29:25;;;;;;;10.18;8.50;;;15.10;99.90;;;-141.84;51.38;20883.00;5033948;28;20182;-58
2023/05/25 05:31:54;;;;;;;11.35;8.55;;;15.00;99.90;;;-141.84;54.06;20763.06;5033555;28;20289;-59
2023/05/25 05:34:23;;;;;;;12.85;8.60;;;14.60;99.90;;;-141.84;56.23;20635.00;5033686;28;20257;-58
2023/05/25 05:36:52;;;;;;;10.80;8.48;;;14.30;99.90;;;-141.84;56.97;20610.59;5033782;28;20195;-59
2023/05/25 05:39:26;;;;;;;10.93;9.60;;;14.10;99.90;;;-141.84;57.86;20519.13;5033679;28;20206;-59
2023/05/25 05:41:55;;;;;;;16.30;10.07;;;13.90;99.90;;;-141.84;59.42;20468.31;5034097;28;20255;-59
2023/05/25 05:44:24;;;;;;;13.40;9.05;;;13.70;99.90;;;-141.84;60.00;20468.31;5033458;28;20303;-59
2023/05/25 05:46:58;;;;;;;13.85;9.63;;;13.60;99.90;;;-141.84;59.91;20450.03;5033637;28;20293;-59
2023/05/25 05:49:30;;;;;;;15.43;9.20;;;13.40;99.90;;;-141.84;60.09;20517.09;5033598;28;20187;-57
2023/05/25 05:51:59;;;;;;;15.30;9.70;;;13.30;99.90;;;-141.84;60.49;20470.34;5033635;28;20186;-54
2023/05/25 05:54:27;;;;;;;14.90;9.98;;;13.40;99.90;;;-141.84;59.61;20517.09;5033286;28;20651;-54
2023/05/25 05:56:55;;;;;;;14.82;9.73;;;13.40;99.90;;;-141.84;59.64;20482.53;5033705;28;20194;-59
2023/05/25 05:59:23;;;;;;;16.80;10.32;;;13.50;99.90;;;-141.84;59.76;20545.56;5032797;28;20194;-55
2023/05/25 06:01:51;;;;;;;12.00;9.88;;;13.60;99.90;;;-141.84;60.14;20513.03;5013773;28;20203;-55
2023/05/25 06:04:24;;;;;;;12.00;9.43;;;13.60;99.90;;;-141.84;59.53;20559.78;5021401;28;20194;-56
2023/05/25 06:06:53;;;;;;;11.15;9.27;;;13.70;99.90;;;-141.84;60.20;20580.13;5033181;28;20206;-54
2023/05/25 06:09:21;;;;;;;12.07;9.38;;;13.90;99.90;;;-141.84;58.79;20639.06;5032175;28;20198;-57
2023/05/25 06:11:50;;;;;;;14.63;10.75;;;14.20;99.90;;;-141.84;58.84;20602.47;5032863;28;20206;-56
2023/05/25 06:14:18;;;;;;;16.38;10.55;;;14.20;99.90;;;-141.84;58.73;20641.09;5032955;28;20210;-56
2023/05/25 06:16:46;;;;;;;14.30;10.23;;;14.40;99.90;;;-141.84;59.52;20673.63;5032367;28;20548;-56
2023/05/25 06:19:14;;;;;;;17.92;13.40;;;14.70;99.90;;;-141.84;59.04;20641.09;5033055;28;20230;-55
2023/05/25 06:21:43;;;;;;;21.38;13.48;;;14.80;99.90;;;-141.84;59.83;20653.28;5032583;28;20693;-58
2023/05/25 06:24:12;;;;;;;16.17;12.65;;;14.80;99.90;;;-141.84;60.71;20635.00;5032600;28;20198;-58
2023/05/25 06:26:40;;;;;;;20.38;13.93;;;14.70;99.90;;;-141.84;59.85;20681.75;5032110;28;20309;-56
2023/05/25 06:29:08;;;;;;;17.67;12.52;;;14.90;99.90;;;-141.84;60.39;20651.25;5032518;28;20205;-56
2023/05/25 06:31:36;;;;;;;20.35;13.75;;;15.10;99.90;;;-141.84;59.40;20724.44;5026802;28;20296;-54
2023/05/25 06:34:05;;;;;;;22.20;14.18;;;15.40;99.90;;;-141.84;59.84;20720.38;5033183;28;20261;-56
2023/05/25 06:36:33;;;;;;;26.67;16.00;;;15.50;99.90;;;-141.84;59.08;20767.13;5032655;28;20202;-56
2023/05/25 06:39:01;;;;;;;19.52;15.82;;;15.50;99.90;;;-141.84;59.66;20752.91;5032090;28;20288;-55
2023/05/25 06:41:31;;;;;;;20.88;15.55;;;15.50;99.90;;;-141.84;59.37;20700.03;5032631;28;20234;-57
2023/05/25 06:43:59;;;;;;;22.35;15.18;;;15.50;99.90;;;-141.84;59.53;20691.91;5032288;28;20206;-55
2023/05/25 06:46:27;;;;;;;20.83;14.73;;;15.30;99.90;;;-141.84;59.73;20730.53;5032369;28;20230;-56
2023/05/25 06:48:55;;;;;;;22.02;14.15;;;15.30;99.90;;;-141.84;60.01;20693.94;5032561;28;20206;-56
2023/05/25 06:51:26;;;;;;;21.58;14.23;;;15.30;99.90;;;-141.84;60.34;20712.25;5032750;28;20233;-53
2023/05/25 06:53:56;;;;;;;26.80;14.70;;;15.20;99.90;;;-141.84;59.47;20748.84;5032247;28;20232;-52
2023/05/25 06:56:25;;;;;;;22.77;14.18;;;15.40;99.90;;;-141.84;58.75;20775.25;5032293;28;20268;-56
2023/05/25 06:58:54;;;;;;;19.42;13.10;;;15.60;99.90;;;-141.84;58.09;20876.91;5032162;28;20289;-55
2023/05/25 07:01:22;;;;;;;19.13;13.38;;;15.90;99.90;;;-141.84;57.04;20927.72;5031935;28;20244;-51
2023/05/25 07:03:51;;;;;;;22.05;14.45;;;16.10;99.90;;;-141.84;57.25;20878.94;5032003;28;20617;-56
2023/05/25 07:06:20;;;;;;;19.85;13.63;;;16.00;99.90;;;-141.84;57.08;20874.88;5031961;28;20312;-56
2023/05/25 07:08:49;;;;;;;20.98;14.95;;;15.90;99.90;;;-141.84;56.88;20919.59;5032150;28;20190;-54
2023/05/25 07:11:19;;;;;;;22.08;14.73;;;15.90;99.90;;;-141.84;57.48;20834.22;5032541;28;20229;-57
2023/05/25 07:13:47;;;;;;;19.13;14.27;;;15.90;99.90;;;-141.84;59.32;20750.88;5032348;28;20226;-57
2023/05/25 07:16:17;;;;;;;21.45;14.90;;;15.70;99.90;;;-141.84;60.47;20710.22;5031708;28;20301;-57
2023/05/25 07:18:45;;;;;;;23.02;16.17;;;15.60;99.90;;;-141.84;59.37;20756.97;5031800;28;20194;-54
2023/05/25 07:21:13;;;;;;;18.52;14.35;;;15.80;99.90;;;-141.84;58.99;20795.59;5031710;28;20209;-56
2023/05/25 07:23:41;;;;;;;18.17;14.15;;;15.80;99.90;;;-141.84;58.92;20801.69;5031201;28;20840;-55
2023/05/25 07:26:09;;;;;;;18.75;14.50;;;15.60;99.90;;;-141.84;58.64;20807.78;5030773;28;20208;-55
2023/05/25 07:28:38;;;;;;;22.48;15.27;;;15.70;99.90;;;-141.84;59.48;20811.84;5030612;28;20236;-56
2023/05/25 07:31:06;;;;;;;19.85;14.77;;;15.70;99.90;;;-141.84;59.36;20783.41;5030525;28;20261;-57
2023/05/25 07:33:35;;;;;;;16.60;13.27;;;15.70;99.90;;;-141.84;58.48;20775.25;5030101;28;20258;-57
2023/05/25 07:36:04;;;;;;;20.83;13.52;;;15.80;99.90;;;-141.84;58.71;20767.13;5030179;28;20305;-57
2023/05/25 07:38:33;;;;;;;15.88;11.70;;;15.70;99.90;;;-141.84;59.76;20685.81;5031617;28;20197;-57
2023/05/25 07:41:01;;;;;;;17.38;12.73;;;15.50;99.90;;;-141.84;60.89;20614.66;5031459;28;20240;-55
2023/05/25 07:43:29;;;;;;;18.88;13.23;;;15.30;99.90;;;-141.84;62.49;20590.28;5031083;28;20204;-58
2023/05/25 07:45:57;;;;;;;17.38;13.07;;;15.20;99.90;;;-141.84;60.54;20671.59;5031469;28;20212;-56
2023/05/25 07:48:25;;;;;;;16.58;11.70;;;15.30;99.90;;;-141.84;59.41;20738.66;5030873;28;20700;-58
2023/05/25 07:50:55;;;;;;;20.95;11.98;;;15.60;99.90;;;-141.84;58.04;20795.59;5030992;28;20289;-57
2023/05/25 07:53:23;;;;;;;15.02;10.30;;;15.70;99.90;;;-141.84;57.64;20856.56;5031153;28;20305;-57
2023/05/25 07:55:51;;;;;;;16.05;10.27;;;16.00;99.90;;;-141.84;56.42;20929.75;5031068;28;20260;-57
2023/05/25 07:58:20;;;;;;;14.50;10.15;;;16.30;99.90;;;-141.84;56.42;20915.53;5031068;28;20197;-57
2023/05/25 08:00:49;;;;;;;18.60;10.27;;;16.40;99.90;;;-141.84;56.34;20933.81;5030687;28;20237;-55
2023/05/25 08:03:17;;;;;;;15.90;11.18;;;16.50;99.90;;;-141.84;55.53;21013.13;5030905;28;20761;-56
2023/05/25 08:05:51;;;;;;;13.65;10.05;;;16.60;99.90;;;-141.84;54.81;21027.34;5030726;28;20213;-58
2023/05/25 08:08:20;;;;;;;19.13;11.18;;;16.70;99.90;;;-141.84;55.41;20972.47;5031095;28;20306;-55
2023/05/25 08:10:49;;;;;;;16.02;10.38;;;16.60;99.90;;;-141.84;56.13;20937.91;5031080;28;20198;-56
2023/05/25 08:13:17;;;;;;;12.73;9.30;;;16.50;99.90;;;-141.84;56.06;20901.31;5030740;28;20241;-57
2023/05/25 08:15:45;;;;;;;12.70;9.18;;;16.50;99.90;;;-141.84;54.98;20903.34;5030889;28;20281;-55
2023/05/25 08:18:13;;;;;;;15.73;9.82;;;16.40;99.90;;;-141.84;53.67;20996.84;5030905;28;20198;-69
2023/05/25 08:20:41;;;;;;;18.13;10.15;;;16.70;99.90;;;-141.84;53.34;21049.72;5030969;28;20280;-70
2023/05/25 08:23:10;;;;;;;16.48;10.70;;;16.90;99.90;;;-141.84;53.55;21078.16;5031193;28;20202;-71
2023/05/25 08:25:39;;;;;;;15.48;9.73;;;17.10;99.90;;;-141.84;54.71;21043.59;5030822;28;20674;-71
2023/05/25 08:28:08;;;;;;;17.75;10.35;;;17.00;99.90;;;-141.84;54.91;20958.22;5030877;28;20748;-70
2023/05/25 08:30:36;;;;;;;13.52;10.23;;;16.90;99.90;;;-141.84;54.86;20988.72;5030790;28;20725;-71
2023/05/25 08:33:05;;;;;;;13.75;10.73;;;16.80;99.90;;;-141.84;54.77;20998.88;5030447;28;20597;-69
2023/05/25 08:35:38;;;;;;;14.93;8.90;;;16.80;99.90;;;-141.84;54.29;20921.63;5030735;28;20670;-71
2023/05/25 08:38:06;;;;;;;16.05;9.10;;;16.80;99.90;;;-141.84;54.59;20946.03;5030573;28;20186;-70
2023/05/25 08:40:34;;;;;;;13.23;8.82;;;16.70;99.90;;;-141.84;54.76;20974.50;5030970;28;20700;-70
2023/05/25 08:43:04;;;;;;;12.30;8.60;;;16.70;99.90;;;-141.84;54.30;20988.72;5030992;28;20209;-71
2023/05/25 08:45:32;;;;;;;11.05;7.28;;;16.80;99.90;;;-141.84;54.92;20919.59;5031438;28;20216;-70
2023/05/25 08:48:14;;;;;;;11.07;8.23;;;16.70;99.90;;;-141.84;54.16;20972.47;5030914;28;20669;-70
2023/05/25 08:50:57;;;;;;;9.85;7.10;;;16.70;99.90;;;-141.84;53.99;20905.38;5030782;28;20281;-71
2023/05/25 08:53:28;;;;;;;12.05;8.32;;;16.50;99.90;;;-141.84;53.42;21023.28;5031078;28;20277;-71
2023/05/25 08:55:58;;;;;;;10.52;7.68;;;16.60;99.90;;;-141.84;53.56;21017.19;5031148;28;20517;-71
2023/05/25 08:58:33;;;;;;;16.92;10.32;;;16.80;99.90;;;-141.84;53.93;21051.75;5030498;28;20190;-70
2023/05/25 09:01:08;;;;;;;11.98;8.35;;;17.00;99.90;;;-141.84;53.41;21031.41;5030866;28;20586;-72
2023/05/25 09:03:37;;;;;;;11.35;7.15;;;16.90;99.90;;;-141.84;51.99;21051.75;5030676;28;20623;-71
2023/05/25 09:06:07;;;;;;;12.68;8.38;;;17.10;99.90;;;-141.84;52.31;21043.59;5030751;28;20601;-71
2023/05/25 09:08:38;;;;;;;10.93;7.90;;;17.10;99.90;;;-141.84;51.35;21090.38;5030196;28;20801;-70
2023/05/25 09:11:07;;;;;;;12.10;6.78;;;17.20;99.90;;;-141.84;51.21;21041.56;5030517;28;20186;-71
2023/05/25 09:13:40;;;;;;;9.75;6.93;;;17.10;99.90;;;-141.84;51.08;21104.59;5030352;28;20221;-71
2023/05/25 09:16:09;;;;;;;10.43;6.10;;;17.30;99.90;;;-141.84;49.82;21145.25;5029838;28;20742;-71
2023/05/25 09:18:39;;;;;;;11.60;7.07;;;17.30;99.90;;;-141.84;49.89;21126.97;5030335;28;20222;-70
2023/05/25 09:21:07;;;;;;;11.40;6.72;;;17.50;99.90;;;-141.84;49.40;21114.75;5030099;28;20208;-70
2023/05/25 09:23:37;;;;;;;10.30;6.78;;;17.70;99.90;;;-141.84;49.59;21194.06;5019848;28;20198;-71
2023/05/25 09:26:05;;;;;;;13.63;7.03;;;17.60;99.90;;;-141.84;48.91;21181.84;5030137;28;20301;-71
2023/05/25 09:28:33;;;;;;;9.52;6.00;;;17.70;99.90;;;-141.84;47.51;21177.78;5029805;28;20720;-70
2023/05/25 09:31:03;;;;;;;7.68;4.55;;;17.70;99.90;;;-141.84;45.19;21145.25;5029470;28;20238;-71
2023/05/25 09:33:31;;;;;;;8.27;5.35;;;17.60;99.90;;;-141.84;46.11;21070.03;5029867;28;20234;-70
2023/05/25 09:36:01;;;;;;;15.75;8.63;;;17.40;99.90;;;-141.84;46.96;21045.63;5030238;28;20198;-70
2023/05/25 09:38:30;;;;;;;9.32;5.97;;;17.30;99.90;;;-141.84;47.48;21114.75;5030026;28;20201;-70
2023/05/25 09:40:59;;;;;;;9.90;5.90;;;17.30;99.90;;;-141.84;47.35;21106.63;5030170;28;20339;-71
2023/05/25 09:43:27;;;;;;;10.80;5.75;;;17.40;99.90;;;-141.84;48.24;21063.94;5029705;28;20194;-70
2023/05/25 09:46:11;;;;;;;14.43;6.45;;;17.40;99.90;;;-141.84;47.70;21129.00;5030201;28;20194;-71
2023/05/25 09:48:40;;;;;;;9.10;5.53;;;17.50;99.90;;;-141.84;46.26;21163.56;5030029;28;20632;-71
2023/05/25 09:51:09;;;;;;;9.30;4.82;;;17.60;99.90;;;-141.84;45.98;21137.13;5032550;28;20297;-70
2023/05/25 09:53:37;;;;;;;8.70;5.93;;;17.60;99.90;;;-141.84;47.03;21165.59;5033741;28;20297;-70
2023/05/25 09:56:06;;;;;;;10.20;6.28;;;17.60;99.90;;;-141.84;47.39;21122.91;5033600;28;20201;-70
2023/05/25 09:58:34;;;;;;;9.18;5.45;;;17.50;99.90;;;-141.84;47.43;21129.00;5033115;28;20674;-71
2023/05/25 10:01:03;;;;;;;11.43;5.82;;;17.50;99.90;;;-141.84;47.91;21065.97;5033205;28;20260;-70
2023/05/25 10:03:33;;;;;;;6.93;4.85;;;17.50;99.90;;;-141.84;47.10;21114.75;5033400;28;20244;-71
2023/05/25 10:06:03;;;;;;;9.60;5.75;;;17.40;99.90;;;-141.84;47.19;21159.50;5033257;28;20574;-71
2023/05/25 10:08:32;;;;;;;9.05;5.18;;;17.60;99.90;;;-141.84;45.69;21271.31;5033574;28;20222;-71
2023/05/25 10:11:01;;;;;;;10.25;5.05;;;17.80;99.90;;;-141.84;45.91;21232.69;5033902;28;20666;-71
2023/05/25 10:13:32;;;;;;;7.63;4.82;;;18.10;99.90;;;-141.84;45.62;21255.03;5032950;28;20688;-72